sensor_id;sensor_type;location;lat;lon;timestamp;P1;durP1;ratioP1;P2;durP2;ratioP2
42632;SDS011;28261;53.304;-6.284;2022-08-19T00:01:48;31.10;;;3.72;;
42632;SDS011;28261;53.304;-6.284;2022-08-19T00:03:54;25.35;;;3.60;;
42632;SDS011;28261;53.304;-6.284;2022-08-19T00:05:58;33.33;;;3.17;;
42632;SDS011;28261;53.304;-6.284;2022-08-19T00:08:01;34.08;;;3.45;;
42632;SDS011;28261;53.304;-6.284;2022-08-19T00:10:06;27.02;;;3.28;;
42632;SDS011;28261;53.304;-6.284;2022-08-19T00:12:17;29.60;;;3.33;;
42632;SDS011;28261;53.304;-6.284;2022-08-19T00:14:21;31.15;;;3.53;;
42632;SDS011;28261;53.304;-6.284;2022-08-19T00:16:26;38.97;;;4.10;;
42632;SDS011;28261;53.304;-6.284;2022-08-19T00:18:30;32.22;;;3.33;;
42632;SDS011;28261;53.304;-6.284;2022-08-19T00:20:34;29.88;;;3.55;;
42632;SDS011;28261;53.304;-6.284;2022-08-19T00:22:38;26.60;;;2.95;;
42632;SDS011;28261;53.304;-6.284;2022-08-19T00:24:43;32.33;;;3.40;;
42632;SDS011;28261;53.304;-6.284;2022-08-19T00:26:51;33.55;;;4.20;;
42632;SDS011;28261;53.304;-6.284;2022-08-19T00:28:58;38.88;;;3.90;;
42632;SDS011;28261;53.304;-6.284;2022-08-19T00:31:02;25.88;;;3.58;;
42632;SDS011;28261;53.304;-6.284;2022-08-19T00:33:06;36.13;;;3.83;;
42632;SDS011;28261;53.304;-6.284;2022-08-19T00:35:10;39.88;;;3.97;;
42632;SDS011;28261;53.304;-6.284;2022-08-19T00:37:14;35.15;;;3.55;;
42632;SDS011;28261;53.304;-6.284;2022-08-19T00:39:18;38.22;;;3.63;;
42632;SDS011;28261;53.304;-6.284;2022-08-19T00:41:22;30.77;;;3.17;;
42632;SDS011;28261;53.304;-6.284;2022-08-19T00:43:27;34.15;;;3.88;;
42632;SDS011;28261;53.304;-6.284;2022-08-19T00:45:32;33.70;;;3.58;;
42632;SDS011;28261;53.304;-6.284;2022-08-19T00:47:37;37.03;;;4.75;;
42632;SDS011;28261;53.304;-6.284;2022-08-19T00:49:41;34.92;;;3.92;;
42632;SDS011;28261;53.304;-6.284;2022-08-19T00:51:55;34.25;;;3.92;;
42632;SDS011;28261;53.304;-6.284;2022-08-19T00:54:03;36.95;;;3.78;;
42632;SDS011;28261;53.304;-6.284;2022-08-19T00:56:07;41.03;;;3.75;;
42632;SDS011;28261;53.304;-6.284;2022-08-19T00:58:12;55.20;;;5.57;;
42632;SDS011;28261;53.304;-6.284;2022-08-19T01:00:19;41.90;;;4.53;;
42632;SDS011;28261;53.304;-6.284;2022-08-19T01:02:25;37.65;;;4.72;;
42632;SDS011;28261;53.304;-6.284;2022-08-19T01:04:30;44.08;;;3.75;;
42632;SDS011;28261;53.304;-6.284;2022-08-19T01:06:33;36.53;;;4.00;;
42632;SDS011;28261;53.304;-6.284;2022-08-19T01:08:39;45.58;;;4.68;;
42632;SDS011;28261;53.304;-6.284;2022-08-19T01:10:43;34.00;;;3.95;;
42632;SDS011;28261;53.304;-6.284;2022-08-19T01:12:49;41.88;;;4.43;;
42632;SDS011;28261;53.304;-6.284;2022-08-19T01:14:54;31.95;;;3.78;;
42632;SDS011;28261;53.304;-6.284;2022-08-19T01:16:59;52.53;;;4.40;;
42632;SDS011;28261;53.304;-6.284;2022-08-19T01:19:08;29.50;;;3.70;;
42632;SDS011;28261;53.304;-6.284;2022-08-19T01:21:16;36.40;;;4.10;;
42632;SDS011;28261;53.304;-6.284;2022-08-19T01:23:33;25.23;;;3.13;;
42632;SDS011;28261;53.304;-6.284;2022-08-19T01:25:51;33.78;;;4.28;;
42632;SDS011;28261;53.304;-6.284;2022-08-19T01:30:12;36.83;;;4.45;;
42632;SDS011;28261;53.304;-6.284;2022-08-19T01:32:17;34.45;;;4.07;;
42632;SDS011;28261;53.304;-6.284;2022-08-19T01:34:34;43.92;;;4.38;;
42632;SDS011;28261;53.304;-6.284;2022-08-19T01:36:38;38.53;;;3.85;;
42632;SDS011;28261;53.304;-6.284;2022-08-19T01:38:45;34.40;;;3.97;;
42632;SDS011;28261;53.304;-6.284;2022-08-19T01:40:50;27.80;;;3.85;;
42632;SDS011;28261;53.304;-6.284;2022-08-19T01:42:53;33.30;;;4.03;;
42632;SDS011;28261;53.304;-6.284;2022-08-19T01:44:57;40.13;;;4.20;;
42632;SDS011;28261;53.304;-6.284;2022-08-19T01:47:02;39.70;;;4.30;;
42632;SDS011;28261;53.304;-6.284;2022-08-19T01:49:06;40.13;;;4.75;;
42632;SDS011;28261;53.304;-6.284;2022-08-19T01:51:11;38.67;;;4.45;;
42632;SDS011;28261;53.304;-6.284;2022-08-19T01:53:15;45.75;;;4.10;;
42632;SDS011;28261;53.304;-6.284;2022-08-19T01:55:20;38.95;;;4.57;;
42632;SDS011;28261;53.304;-6.284;2022-08-19T01:57:25;47.90;;;4.40;;
42632;SDS011;28261;53.304;-6.284;2022-08-19T01:59:28;47.40;;;4.32;;
42632;SDS011;28261;53.304;-6.284;2022-08-19T02:01:33;37.17;;;3.75;;
42632;SDS011;28261;53.304;-6.284;2022-08-19T02:03:36;42.95;;;4.45;;
42632;SDS011;28261;53.304;-6.284;2022-08-19T02:05:40;46.45;;;4.55;;
42632;SDS011;28261;53.304;-6.284;2022-08-19T02:07:44;35.85;;;4.03;;
42632;SDS011;28261;53.304;-6.284;2022-08-19T02:09:48;48.75;;;6.05;;
42632;SDS011;28261;53.304;-6.284;2022-08-19T02:11:52;37.95;;;3.92;;
42632;SDS011;28261;53.304;-6.284;2022-08-19T02:13:56;35.75;;;4.05;;
42632;SDS011;28261;53.304;-6.284;2022-08-19T02:16:00;44.67;;;4.80;;
42632;SDS011;28261;53.304;-6.284;2022-08-19T02:18:07;33.47;;;4.10;;
42632;SDS011;28261;53.304;-6.284;2022-08-19T02:20:10;33.40;;;3.90;;
42632;SDS011;28261;53.304;-6.284;2022-08-19T02:22:15;40.05;;;3.60;;
42632;SDS011;28261;53.304;-6.284;2022-08-19T02:24:18;37.05;;;3.72;;
42632;SDS011;28261;53.304;-6.284;2022-08-19T02:26:21;30.52;;;3.50;;
42632;SDS011;28261;53.304;-6.284;2022-08-19T02:28:26;40.05;;;4.13;;
42632;SDS011;28261;53.304;-6.284;2022-08-19T02:30:29;49.30;;;3.80;;
42632;SDS011;28261;53.304;-6.284;2022-08-19T02:32:33;35.75;;;3.53;;
42632;SDS011;28261;53.304;-6.284;2022-08-19T02:34:45;31.63;;;3.67;;
42632;SDS011;28261;53.304;-6.284;2022-08-19T02:36:49;50.88;;;5.68;;
42632;SDS011;28261;53.304;-6.284;2022-08-19T02:38:53;37.63;;;4.13;;
42632;SDS011;28261;53.304;-6.284;2022-08-19T02:40:57;39.20;;;3.80;;
42632;SDS011;28261;53.304;-6.284;2022-08-19T02:43:03;43.53;;;3.85;;
42632;SDS011;28261;53.304;-6.284;2022-08-19T02:45:10;39.88;;;3.55;;
42632;SDS011;28261;53.304;-6.284;2022-08-19T02:47:13;36.33;;;4.10;;
42632;SDS011;28261;53.304;-6.284;2022-08-19T02:49:18;50.67;;;4.10;;
42632;SDS011;28261;53.304;-6.284;2022-08-19T02:51:23;39.58;;;4.57;;
42632;SDS011;28261;53.304;-6.284;2022-08-19T02:53:28;39.60;;;4.03;;
42632;SDS011;28261;53.304;-6.284;2022-08-19T02:55:32;36.88;;;4.10;;
42632;SDS011;28261;53.304;-6.284;2022-08-19T02:57:47;29.40;;;3.30;;
42632;SDS011;28261;53.304;-6.284;2022-08-19T02:59:51;30.23;;;2.88;;
42632;SDS011;28261;53.304;-6.284;2022-08-19T03:01:56;32.60;;;2.92;;
42632;SDS011;28261;53.304;-6.284;2022-08-19T03:04:00;35.40;;;3.75;;
42632;SDS011;28261;53.304;-6.284;2022-08-19T03:06:07;30.88;;;3.72;;
42632;SDS011;28261;53.304;-6.284;2022-08-19T03:08:14;24.73;;;3.85;;
42632;SDS011;28261;53.304;-6.284;2022-08-19T03:10:18;35.08;;;3.60;;
42632;SDS011;28261;53.304;-6.284;2022-08-19T03:12:21;30.90;;;4.15;;
42632;SDS011;28261;53.304;-6.284;2022-08-19T03:14:25;25.70;;;3.33;;
42632;SDS011;28261;53.304;-6.284;2022-08-19T03:16:30;45.72;;;3.50;;
42632;SDS011;28261;53.304;-6.284;2022-08-19T03:18:39;33.90;;;4.10;;
42632;SDS011;28261;53.304;-6.284;2022-08-19T03:20:44;25.48;;;3.40;;
42632;SDS011;28261;53.304;-6.284;2022-08-19T03:22:49;27.75;;;2.85;;
42632;SDS011;28261;53.304;-6.284;2022-08-19T03:24:53;31.45;;;3.20;;
42632;SDS011;28261;53.304;-6.284;2022-08-19T03:26:57;28.15;;;3.10;;
42632;SDS011;28261;53.304;-6.284;2022-08-19T03:29:01;23.85;;;3.10;;
42632;SDS011;28261;53.304;-6.284;2022-08-19T03:31:07;25.20;;;3.30;;
42632;SDS011;28261;53.304;-6.284;2022-08-19T03:33:33;19.83;;;2.67;;
42632;SDS011;28261;53.304;-6.284;2022-08-19T03:35:39;32.45;;;2.97;;
42632;SDS011;28261;53.304;-6.284;2022-08-19T03:37:42;21.85;;;3.13;;
42632;SDS011;28261;53.304;-6.284;2022-08-19T03:39:46;23.95;;;3.13;;
42632;SDS011;28261;53.304;-6.284;2022-08-19T03:41:51;27.23;;;3.25;;
42632;SDS011;28261;53.304;-6.284;2022-08-19T03:44:19;42.25;;;3.63;;
42632;SDS011;28261;53.304;-6.284;2022-08-19T03:46:26;34.72;;;4.45;;
42632;SDS011;28261;53.304;-6.284;2022-08-19T03:48:31;38.38;;;2.70;;
42632;SDS011;28261;53.304;-6.284;2022-08-19T03:50:39;21.08;;;2.78;;
42632;SDS011;28261;53.304;-6.284;2022-08-19T03:52:47;29.25;;;4.68;;
42632;SDS011;28261;53.304;-6.284;2022-08-19T03:54:52;26.33;;;3.00;;
42632;SDS011;28261;53.304;-6.284;2022-08-19T03:56:55;27.20;;;2.95;;
42632;SDS011;28261;53.304;-6.284;2022-08-19T03:59:00;35.67;;;4.35;;
42632;SDS011;28261;53.304;-6.284;2022-08-19T04:01:07;24.17;;;2.15;;
42632;SDS011;28261;53.304;-6.284;2022-08-19T04:03:11;23.20;;;3.03;;
42632;SDS011;28261;53.304;-6.284;2022-08-19T04:05:14;27.92;;;2.85;;
42632;SDS011;28261;53.304;-6.284;2022-08-19T04:07:20;29.17;;;2.65;;
42632;SDS011;28261;53.304;-6.284;2022-08-19T04:09:23;23.33;;;2.55;;
42632;SDS011;28261;53.304;-6.284;2022-08-19T04:11:28;17.73;;;2.33;;
42632;SDS011;28261;53.304;-6.284;2022-08-19T04:13:45;24.30;;;2.53;;
42632;SDS011;28261;53.304;-6.284;2022-08-19T04:15:48;25.40;;;2.80;;
42632;SDS011;28261;53.304;-6.284;2022-08-19T04:17:52;30.00;;;2.75;;
42632;SDS011;28261;53.304;-6.284;2022-08-19T04:19:56;24.38;;;2.60;;
42632;SDS011;28261;53.304;-6.284;2022-08-19T04:22:01;30.40;;;2.85;;
42632;SDS011;28261;53.304;-6.284;2022-08-19T04:24:07;25.65;;;2.90;;
42632;SDS011;28261;53.304;-6.284;2022-08-19T04:26:12;26.55;;;2.92;;
42632;SDS011;28261;53.304;-6.284;2022-08-19T04:28:17;28.50;;;3.15;;
42632;SDS011;28261;53.304;-6.284;2022-08-19T04:30:20;30.55;;;3.40;;
42632;SDS011;28261;53.304;-6.284;2022-08-19T04:32:24;37.05;;;3.80;;
42632;SDS011;28261;53.304;-6.284;2022-08-19T04:34:28;23.83;;;2.90;;
42632;SDS011;28261;53.304;-6.284;2022-08-19T04:36:33;21.20;;;2.65;;
42632;SDS011;28261;53.304;-6.284;2022-08-19T04:38:38;33.20;;;2.53;;
42632;SDS011;28261;53.304;-6.284;2022-08-19T04:40:44;25.85;;;2.58;;
42632;SDS011;28261;53.304;-6.284;2022-08-19T04:43:07;16.73;;;2.38;;
42632;SDS011;28261;53.304;-6.284;2022-08-19T04:45:16;21.08;;;2.13;;
42632;SDS011;28261;53.304;-6.284;2022-08-19T04:47:23;19.65;;;2.42;;
42632;SDS011;28261;53.304;-6.284;2022-08-19T04:49:47;21.52;;;2.33;;
42632;SDS011;28261;53.304;-6.284;2022-08-19T04:51:51;17.00;;;2.25;;
42632;SDS011;28261;53.304;-6.284;2022-08-19T04:53:56;21.35;;;2.72;;
42632;SDS011;28261;53.304;-6.284;2022-08-19T04:56:05;26.30;;;2.65;;
42632;SDS011;28261;53.304;-6.284;2022-08-19T04:58:11;17.38;;;2.38;;
42632;SDS011;28261;53.304;-6.284;2022-08-19T05:00:16;20.25;;;2.30;;
42632;SDS011;28261;53.304;-6.284;2022-08-19T05:02:19;36.05;;;3.70;;
42632;SDS011;28261;53.304;-6.284;2022-08-19T05:04:24;23.65;;;2.67;;
42632;SDS011;28261;53.304;-6.284;2022-08-19T05:06:30;38.33;;;4.15;;
42632;SDS011;28261;53.304;-6.284;2022-08-19T05:08:35;28.75;;;3.13;;
42632;SDS011;28261;53.304;-6.284;2022-08-19T05:10:42;22.20;;;2.55;;
42632;SDS011;28261;53.304;-6.284;2022-08-19T05:12:47;18.10;;;2.72;;
42632;SDS011;28261;53.304;-6.284;2022-08-19T05:14:51;20.83;;;2.25;;
42632;SDS011;28261;53.304;-6.284;2022-08-19T05:16:54;15.90;;;2.30;;
42632;SDS011;28261;53.304;-6.284;2022-08-19T05:19:18;38.78;;;3.30;;
42632;SDS011;28261;53.304;-6.284;2022-08-19T05:21:39;22.52;;;3.10;;
42632;SDS011;28261;53.304;-6.284;2022-08-19T05:24:02;20.80;;;2.43;;
42632;SDS011;28261;53.304;-6.284;2022-08-19T05:26:10;30.52;;;3.13;;
42632;SDS011;28261;53.304;-6.284;2022-08-19T05:28:15;20.60;;;2.30;;
42632;SDS011;28261;53.304;-6.284;2022-08-19T05:30:19;27.20;;;2.80;;
42632;SDS011;28261;53.304;-6.284;2022-08-19T05:32:42;21.58;;;2.72;;
42632;SDS011;28261;53.304;-6.284;2022-08-19T05:34:46;22.52;;;2.53;;
42632;SDS011;28261;53.304;-6.284;2022-08-19T05:36:51;24.42;;;2.65;;
42632;SDS011;28261;53.304;-6.284;2022-08-19T05:38:58;15.90;;;2.08;;
42632;SDS011;28261;53.304;-6.284;2022-08-19T05:41:05;23.27;;;2.45;;
42632;SDS011;28261;53.304;-6.284;2022-08-19T05:43:10;20.75;;;2.25;;
42632;SDS011;28261;53.304;-6.284;2022-08-19T05:45:15;25.77;;;3.05;;
42632;SDS011;28261;53.304;-6.284;2022-08-19T05:47:18;22.50;;;2.70;;
42632;SDS011;28261;53.304;-6.284;2022-08-19T05:49:23;20.85;;;2.35;;
42632;SDS011;28261;53.304;-6.284;2022-08-19T05:51:28;24.75;;;2.42;;
42632;SDS011;28261;53.304;-6.284;2022-08-19T05:53:32;22.38;;;3.83;;
42632;SDS011;28261;53.304;-6.284;2022-08-19T05:55:38;18.35;;;2.65;;
42632;SDS011;28261;53.304;-6.284;2022-08-19T05:57:41;22.15;;;2.20;;
42632;SDS011;28261;53.304;-6.284;2022-08-19T05:59:45;16.40;;;2.10;;
42632;SDS011;28261;53.304;-6.284;2022-08-19T06:01:55;23.52;;;2.63;;
42632;SDS011;28261;53.304;-6.284;2022-08-19T06:03:59;21.38;;;2.53;;
42632;SDS011;28261;53.304;-6.284;2022-08-19T06:06:02;16.85;;;2.03;;
42632;SDS011;28261;53.304;-6.284;2022-08-19T06:08:07;21.25;;;2.30;;
42632;SDS011;28261;53.304;-6.284;2022-08-19T06:10:10;19.08;;;1.73;;
42632;SDS011;28261;53.304;-6.284;2022-08-19T06:12:14;14.95;;;2.17;;
42632;SDS011;28261;53.304;-6.284;2022-08-19T06:14:20;18.58;;;2.10;;
42632;SDS011;28261;53.304;-6.284;2022-08-19T06:16:28;14.90;;;1.90;;
42632;SDS011;28261;53.304;-6.284;2022-08-19T06:18:37;14.70;;;2.10;;
42632;SDS011;28261;53.304;-6.284;2022-08-19T06:20:40;12.38;;;1.63;;
42632;SDS011;28261;53.304;-6.284;2022-08-19T06:22:56;17.98;;;2.22;;
42632;SDS011;28261;53.304;-6.284;2022-08-19T06:25:00;15.23;;;1.60;;
42632;SDS011;28261;53.304;-6.284;2022-08-19T06:27:06;15.75;;;1.98;;
42632;SDS011;28261;53.304;-6.284;2022-08-19T06:29:10;19.92;;;2.10;;
42632;SDS011;28261;53.304;-6.284;2022-08-19T06:31:25;19.30;;;2.53;;
42632;SDS011;28261;53.304;-6.284;2022-08-19T06:33:30;13.68;;;1.85;;
42632;SDS011;28261;53.304;-6.284;2022-08-19T06:35:39;16.17;;;2.20;;
42632;SDS011;28261;53.304;-6.284;2022-08-19T06:37:43;29.75;;;2.30;;
42632;SDS011;28261;53.304;-6.284;2022-08-19T06:39:47;20.83;;;1.70;;
42632;SDS011;28261;53.304;-6.284;2022-08-19T06:41:52;20.13;;;1.90;;
42632;SDS011;28261;53.304;-6.284;2022-08-19T06:44:03;17.52;;;1.77;;
42632;SDS011;28261;53.304;-6.284;2022-08-19T06:46:14;22.05;;;2.42;;
42632;SDS011;28261;53.304;-6.284;2022-08-19T06:48:20;18.50;;;2.28;;
42632;SDS011;28261;53.304;-6.284;2022-08-19T06:50:26;10.65;;;1.65;;
42632;SDS011;28261;53.304;-6.284;2022-08-19T06:52:33;19.52;;;1.60;;
42632;SDS011;28261;53.304;-6.284;2022-08-19T06:54:49;15.38;;;1.80;;
42632;SDS011;28261;53.304;-6.284;2022-08-19T06:56:57;15.68;;;2.03;;
42632;SDS011;28261;53.304;-6.284;2022-08-19T06:59:04;23.50;;;2.10;;
42632;SDS011;28261;53.304;-6.284;2022-08-19T07:01:09;18.48;;;1.88;;
42632;SDS011;28261;53.304;-6.284;2022-08-19T07:03:13;17.52;;;1.88;;
42632;SDS011;28261;53.304;-6.284;2022-08-19T07:05:17;17.35;;;1.77;;
42632;SDS011;28261;53.304;-6.284;2022-08-19T07:07:21;9.23;;;1.55;;
42632;SDS011;28261;53.304;-6.284;2022-08-19T07:09:26;11.93;;;1.38;;
42632;SDS011;28261;53.304;-6.284;2022-08-19T07:11:31;10.50;;;1.45;;
42632;SDS011;28261;53.304;-6.284;2022-08-19T07:13:36;10.40;;;1.45;;
42632;SDS011;28261;53.304;-6.284;2022-08-19T07:15:40;9.93;;;1.30;;
42632;SDS011;28261;53.304;-6.284;2022-08-19T07:17:44;10.55;;;1.35;;
42632;SDS011;28261;53.304;-6.284;2022-08-19T07:19:53;11.57;;;2.20;;
42632;SDS011;28261;53.304;-6.284;2022-08-19T07:21:58;17.75;;;2.03;;
42632;SDS011;28261;53.304;-6.284;2022-08-19T07:24:04;9.30;;;1.70;;
42632;SDS011;28261;53.304;-6.284;2022-08-19T07:26:11;17.58;;;2.17;;
42632;SDS011;28261;53.304;-6.284;2022-08-19T07:28:16;15.80;;;1.95;;
42632;SDS011;28261;53.304;-6.284;2022-08-19T07:30:25;21.63;;;3.90;;
42632;SDS011;28261;53.304;-6.284;2022-08-19T07:32:29;12.63;;;2.13;;
42632;SDS011;28261;53.304;-6.284;2022-08-19T07:34:33;15.52;;;2.08;;
42632;SDS011;28261;53.304;-6.284;2022-08-19T07:36:41;14.05;;;1.90;;
42632;SDS011;28261;53.304;-6.284;2022-08-19T07:38:45;20.45;;;1.55;;
42632;SDS011;28261;53.304;-6.284;2022-08-19T07:40:50;19.08;;;1.50;;
42632;SDS011;28261;53.304;-6.284;2022-08-19T07:42:57;6.65;;;1.20;;
42632;SDS011;28261;53.304;-6.284;2022-08-19T07:45:00;9.35;;;1.30;;
42632;SDS011;28261;53.304;-6.284;2022-08-19T07:47:04;9.60;;;1.45;;
42632;SDS011;28261;53.304;-6.284;2022-08-19T07:49:28;9.98;;;1.27;;
42632;SDS011;28261;53.304;-6.284;2022-08-19T07:51:32;7.40;;;1.02;;
42632;SDS011;28261;53.304;-6.284;2022-08-19T07:53:37;9.95;;;1.42;;
42632;SDS011;28261;53.304;-6.284;2022-08-19T07:55:41;9.88;;;1.50;;
42632;SDS011;28261;53.304;-6.284;2022-08-19T07:57:44;6.82;;;1.23;;
42632;SDS011;28261;53.304;-6.284;2022-08-19T07:59:49;8.55;;;1.33;;
42632;SDS011;28261;53.304;-6.284;2022-08-19T08:01:53;9.98;;;1.42;;
42632;SDS011;28261;53.304;-6.284;2022-08-19T08:03:57;8.98;;;1.52;;
42632;SDS011;28261;53.304;-6.284;2022-08-19T08:06:18;11.98;;;1.60;;
42632;SDS011;28261;53.304;-6.284;2022-08-19T08:08:39;13.90;;;1.83;;
42632;SDS011;28261;53.304;-6.284;2022-08-19T08:11:00;11.90;;;1.50;;
42632;SDS011;28261;53.304;-6.284;2022-08-19T08:13:08;18.40;;;2.05;;
42632;SDS011;28261;53.304;-6.284;2022-08-19T08:15:14;13.27;;;1.52;;
42632;SDS011;28261;53.304;-6.284;2022-08-19T08:17:22;7.03;;;1.17;;
42632;SDS011;28261;53.304;-6.284;2022-08-19T08:19:48;20.42;;;1.98;;
42632;SDS011;28261;53.304;-6.284;2022-08-19T08:21:52;14.15;;;1.83;;
42632;SDS011;28261;53.304;-6.284;2022-08-19T08:23:57;10.02;;;1.30;;
42632;SDS011;28261;53.304;-6.284;2022-08-19T08:26:04;12.80;;;1.77;;
42632;SDS011;28261;53.304;-6.284;2022-08-19T08:28:08;9.70;;;1.75;;
42632;SDS011;28261;53.304;-6.284;2022-08-19T08:30:21;13.70;;;1.80;;
42632;SDS011;28261;53.304;-6.284;2022-08-19T08:32:31;21.60;;;1.85;;
42632;SDS011;28261;53.304;-6.284;2022-08-19T08:34:35;14.60;;;1.70;;
42632;SDS011;28261;53.304;-6.284;2022-08-19T08:36:44;18.67;;;2.17;;
42632;SDS011;28261;53.304;-6.284;2022-08-19T08:38:49;13.35;;;1.40;;
42632;SDS011;28261;53.304;-6.284;2022-08-19T08:40:57;11.50;;;1.30;;
42632;SDS011;28261;53.304;-6.284;2022-08-19T08:43:11;9.40;;;1.30;;
42632;SDS011;28261;53.304;-6.284;2022-08-19T08:45:26;18.17;;;2.45;;
42632;SDS011;28261;53.304;-6.284;2022-08-19T08:47:41;16.13;;;1.45;;
42632;SDS011;28261;53.304;-6.284;2022-08-19T08:49:50;22.63;;;1.73;;
42632;SDS011;28261;53.304;-6.284;2022-08-19T08:51:59;17.30;;;1.65;;
42632;SDS011;28261;53.304;-6.284;2022-08-19T08:54:07;15.13;;;1.55;;
42632;SDS011;28261;53.304;-6.284;2022-08-19T08:56:15;21.98;;;1.80;;
42632;SDS011;28261;53.304;-6.284;2022-08-19T08:58:20;11.38;;;1.50;;
42632;SDS011;28261;53.304;-6.284;2022-08-19T09:00:33;9.63;;;1.65;;
42632;SDS011;28261;53.304;-6.284;2022-08-19T09:02:39;13.35;;;1.83;;
42632;SDS011;28261;53.304;-6.284;2022-08-19T09:04:44;8.75;;;1.30;;
42632;SDS011;28261;53.304;-6.284;2022-08-19T09:06:51;9.23;;;1.30;;
42632;SDS011;28261;53.304;-6.284;2022-08-19T09:09:19;14.07;;;1.23;;
42632;SDS011;28261;53.304;-6.284;2022-08-19T09:11:36;10.00;;;1.10;;
42632;SDS011;28261;53.304;-6.284;2022-08-19T09:13:53;8.90;;;1.50;;
42632;SDS011;28261;53.304;-6.284;2022-08-19T09:16:32;8.85;;;0.90;;
42632;SDS011;28261;53.304;-6.284;2022-08-19T09:18:39;9.27;;;1.10;;
42632;SDS011;28261;53.304;-6.284;2022-08-19T09:20:46;8.43;;;1.08;;
42632;SDS011;28261;53.304;-6.284;2022-08-19T09:22:50;14.50;;;1.40;;
42632;SDS011;28261;53.304;-6.284;2022-08-19T09:24:53;12.40;;;1.60;;
42632;SDS011;28261;53.304;-6.284;2022-08-19T09:26:58;13.05;;;1.85;;
42632;SDS011;28261;53.304;-6.284;2022-08-19T09:29:19;9.45;;;1.23;;
42632;SDS011;28261;53.304;-6.284;2022-08-19T09:31:23;12.00;;;1.13;;
42632;SDS011;28261;53.304;-6.284;2022-08-19T09:33:30;9.75;;;1.20;;
42632;SDS011;28261;53.304;-6.284;2022-08-19T09:35:34;8.88;;;1.25;;
42632;SDS011;28261;53.304;-6.284;2022-08-19T09:37:54;9.15;;;1.65;;
42632;SDS011;28261;53.304;-6.284;2022-08-19T09:40:00;9.15;;;1.08;;
42632;SDS011;28261;53.304;-6.284;2022-08-19T09:42:05;6.88;;;0.95;;
42632;SDS011;28261;53.304;-6.284;2022-08-19T09:44:20;14.50;;;1.40;;
42632;SDS011;28261;53.304;-6.284;2022-08-19T09:46:27;10.20;;;1.50;;
42632;SDS011;28261;53.304;-6.284;2022-08-19T09:48:34;12.95;;;1.75;;
42632;SDS011;28261;53.304;-6.284;2022-08-19T09:50:39;10.95;;;1.35;;
42632;SDS011;28261;53.304;-6.284;2022-08-19T09:52:52;8.52;;;1.35;;
42632;SDS011;28261;53.304;-6.284;2022-08-19T09:54:58;11.77;;;1.40;;
42632;SDS011;28261;53.304;-6.284;2022-08-19T09:57:07;12.40;;;1.45;;
42632;SDS011;28261;53.304;-6.284;2022-08-19T09:59:11;12.02;;;1.20;;
42632;SDS011;28261;53.304;-6.284;2022-08-19T10:01:16;10.77;;;1.52;;
42632;SDS011;28261;53.304;-6.284;2022-08-19T10:03:22;13.77;;;1.58;;
42632;SDS011;28261;53.304;-6.284;2022-08-19T10:05:32;16.05;;;1.50;;
42632;SDS011;28261;53.304;-6.284;2022-08-19T10:07:56;6.40;;;1.00;;
42632;SDS011;28261;53.304;-6.284;2022-08-19T10:10:05;10.20;;;1.30;;
42632;SDS011;28261;53.304;-6.284;2022-08-19T10:12:10;6.68;;;1.60;;
42632;SDS011;28261;53.304;-6.284;2022-08-19T10:14:20;13.43;;;1.73;;
42632;SDS011;28261;53.304;-6.284;2022-08-19T10:16:25;8.10;;;1.73;;
42632;SDS011;28261;53.304;-6.284;2022-08-19T10:18:31;12.20;;;1.45;;
42632;SDS011;28261;53.304;-6.284;2022-08-19T10:20:37;16.83;;;1.63;;
42632;SDS011;28261;53.304;-6.284;2022-08-19T10:22:43;16.55;;;1.90;;
42632;SDS011;28261;53.304;-6.284;2022-08-19T10:24:52;15.88;;;1.40;;
42632;SDS011;28261;53.304;-6.284;2022-08-19T10:26:56;17.35;;;1.60;;
42632;SDS011;28261;53.304;-6.284;2022-08-19T10:29:00;8.60;;;1.27;;
42632;SDS011;28261;53.304;-6.284;2022-08-19T10:31:06;11.57;;;1.77;;
42632;SDS011;28261;53.304;-6.284;2022-08-19T10:33:11;10.05;;;1.20;;
42632;SDS011;28261;53.304;-6.284;2022-08-19T10:35:35;10.70;;;1.40;;
42632;SDS011;28261;53.304;-6.284;2022-08-19T10:37:59;9.15;;;1.95;;
42632;SDS011;28261;53.304;-6.284;2022-08-19T10:40:06;11.35;;;2.42;;
42632;SDS011;28261;53.304;-6.284;2022-08-19T10:42:12;13.75;;;1.90;;
42632;SDS011;28261;53.304;-6.284;2022-08-19T10:44:17;14.65;;;1.88;;
42632;SDS011;28261;53.304;-6.284;2022-08-19T10:46:23;14.82;;;1.83;;
42632;SDS011;28261;53.304;-6.284;2022-08-19T10:48:29;20.40;;;2.20;;
42632;SDS011;28261;53.304;-6.284;2022-08-19T10:50:32;12.98;;;1.88;;
42632;SDS011;28261;53.304;-6.284;2022-08-19T10:52:52;13.80;;;1.60;;
42632;SDS011;28261;53.304;-6.284;2022-08-19T10:54:58;11.55;;;1.70;;
42632;SDS011;28261;53.304;-6.284;2022-08-19T10:57:19;11.57;;;1.60;;
42632;SDS011;28261;53.304;-6.284;2022-08-19T10:59:37;11.35;;;1.70;;
42632;SDS011;28261;53.304;-6.284;2022-08-19T11:01:41;18.35;;;3.83;;
42632;SDS011;28261;53.304;-6.284;2022-08-19T11:03:51;11.50;;;1.77;;
42632;SDS011;28261;53.304;-6.284;2022-08-19T11:05:58;9.13;;;1.77;;
42632;SDS011;28261;53.304;-6.284;2022-08-19T11:08:03;13.95;;;1.50;;
42632;SDS011;28261;53.304;-6.284;2022-08-19T11:10:25;8.32;;;1.13;;
42632;SDS011;28261;53.304;-6.284;2022-08-19T11:12:29;17.75;;;1.70;;
42632;SDS011;28261;53.304;-6.284;2022-08-19T11:14:34;6.93;;;1.55;;
42632;SDS011;28261;53.304;-6.284;2022-08-19T11:16:38;11.18;;;1.60;;
42632;SDS011;28261;53.304;-6.284;2022-08-19T11:18:42;14.68;;;2.10;;
42632;SDS011;28261;53.304;-6.284;2022-08-19T11:20:48;13.65;;;1.65;;
42632;SDS011;28261;53.304;-6.284;2022-08-19T11:22:52;7.35;;;1.65;;
42632;SDS011;28261;53.304;-6.284;2022-08-19T11:24:56;11.77;;;2.45;;
42632;SDS011;28261;53.304;-6.284;2022-08-19T11:27:02;15.60;;;2.05;;
42632;SDS011;28261;53.304;-6.284;2022-08-19T11:29:08;12.30;;;1.85;;
42632;SDS011;28261;53.304;-6.284;2022-08-19T11:31:15;12.80;;;2.28;;
42632;SDS011;28261;53.304;-6.284;2022-08-19T11:33:20;9.65;;;1.55;;
42632;SDS011;28261;53.304;-6.284;2022-08-19T11:35:24;8.88;;;1.40;;
42632;SDS011;28261;53.304;-6.284;2022-08-19T11:37:27;7.13;;;1.65;;
42632;SDS011;28261;53.304;-6.284;2022-08-19T11:39:31;7.20;;;1.83;;
42632;SDS011;28261;53.304;-6.284;2022-08-19T11:41:37;10.90;;;1.60;;
42632;SDS011;28261;53.304;-6.284;2022-08-19T11:43:42;15.27;;;2.10;;
42632;SDS011;28261;53.304;-6.284;2022-08-19T11:45:45;8.63;;;2.03;;
42632;SDS011;28261;53.304;-6.284;2022-08-19T11:47:50;14.75;;;2.00;;
42632;SDS011;28261;53.304;-6.284;2022-08-19T11:49:54;10.27;;;1.70;;
42632;SDS011;28261;53.304;-6.284;2022-08-19T11:51:58;5.72;;;1.35;;
42632;SDS011;28261;53.304;-6.284;2022-08-19T11:54:03;16.95;;;2.35;;
42632;SDS011;28261;53.304;-6.284;2022-08-19T11:56:08;12.15;;;2.25;;
42632;SDS011;28261;53.304;-6.284;2022-08-19T11:58:12;12.60;;;2.10;;
42632;SDS011;28261;53.304;-6.284;2022-08-19T12:00:21;13.02;;;2.10;;
42632;SDS011;28261;53.304;-6.284;2022-08-19T12:02:25;24.23;;;3.00;;
42632;SDS011;28261;53.304;-6.284;2022-08-19T12:04:28;20.95;;;2.75;;
42632;SDS011;28261;53.304;-6.284;2022-08-19T12:06:32;15.70;;;2.58;;
42632;SDS011;28261;53.304;-6.284;2022-08-19T12:08:36;12.85;;;2.58;;
42632;SDS011;28261;53.304;-6.284;2022-08-19T12:10:40;24.67;;;2.50;;
42632;SDS011;28261;53.304;-6.284;2022-08-19T12:12:43;12.48;;;2.28;;
42632;SDS011;28261;53.304;-6.284;2022-08-19T12:14:59;16.90;;;2.45;;
42632;SDS011;28261;53.304;-6.284;2022-08-19T12:17:05;11.35;;;2.20;;
42632;SDS011;28261;53.304;-6.284;2022-08-19T12:19:10;13.73;;;2.33;;
42632;SDS011;28261;53.304;-6.284;2022-08-19T12:21:23;15.63;;;2.22;;
42632;SDS011;28261;53.304;-6.284;2022-08-19T12:23:29;14.45;;;2.38;;
42632;SDS011;28261;53.304;-6.284;2022-08-19T12:25:33;9.38;;;2.28;;
42632;SDS011;28261;53.304;-6.284;2022-08-19T12:27:37;13.82;;;2.67;;